Aviation Digital Data Service (ADDS)

Output produced by METARs form (1739 UTC 31 October 2014)
found at http://aviationweather.gov/adds/metars/
 
KSYR 311720Z 3118/0118 11005KT P6SM BKN060 BKN150 
     FM010400 07004KT P6SM -SHRA OVC045